Time;durP1;ratioP1;P1;durP2;ratioP2;P2;SDS_P1;SDS_P2;PMS_P1;PMS_P2;Temp;Humidity;BMP_temperature;BMP_pressure;BME280_temperature;BME280_humidity;BME280_pressure;Samples;Min_cycle;Max_cycle;Signal;HPM_P1;HPM_P2
2022/02/03 00:04:59;;;;;;;40.90;26.53;;;9.50;99.90;;;;;;5033454;28;20044;-75
2022/02/03 00:07:37;;;;;;;37.30;25.10;;;9.40;99.90;;;;;;5022539;28;20063;-75
2022/02/03 00:26:34;;;;;;;39.90;24.60;;;9.40;99.90;;;;;;5035631;28;20415;-76
2022/02/03 00:29:03;;;;;;;43.93;27.87;;;9.40;99.90;;;;;;5034994;28;20140;-76
2022/02/03 00:34:10;;;;;;;40.50;26.40;;;9.40;99.90;;;;;;5055092;28;20480;-75
2022/02/03 00:37:06;;;;;;;42.97;26.93;;;9.30;99.90;;;;;;5054682;28;20367;-76
2022/02/03 00:50:34;;;;;;;42.30;28.10;;;9.40;99.90;;;;;;5054886;28;20091;-76
2022/02/03 00:53:02;;;;;;;43.37;27.90;;;9.50;99.90;;;;;;5036786;28;20563;-76
2022/02/03 00:55:35;;;;;;;43.03;27.57;;;9.40;99.90;;;;;;5037177;28;20052;-75
2022/02/03 00:58:03;;;;;;;41.07;28.07;;;9.40;99.90;;;;;;5035943;28;20063;-76
2022/02/03 01:00:31;;;;;;;44.13;30.23;;;9.40;99.90;;;;;;5054243;28;20029;-75
2022/02/03 01:03:11;;;;;;;45.47;27.93;;;9.40;99.90;;;;;;5036310;28;20393;-76
2022/02/03 01:05:47;;;;;;;44.23;29.20;;;9.40;99.90;;;;;;5054258;28;20477;-76
2022/02/03 01:08:18;;;;;;;43.40;29.60;;;9.40;99.90;;;;;;5053578;28;20039;-75
2022/02/03 01:10:51;;;;;;;45.33;27.10;;;9.40;99.90;;;;;;5020869;28;20124;-76
2022/02/03 01:13:35;;;;;;;45.75;30.13;;;9.50;99.90;;;;;;5035905;28;20055;-76
2022/02/03 01:16:39;;;;;;;45.72;29.98;;;9.50;99.90;;;;;;5054143;28;20425;-76
2022/02/03 01:37:48;;;;;;;47.40;33.40;;;9.50;99.90;;;;;;5035836;28;20417;-75
2022/02/03 01:45:54;;;;;;;51.30;31.77;;;9.50;99.90;;;;;;5053672;28;20413;-76
2022/02/03 01:48:35;;;;;;;55.92;35.95;;;9.50;99.90;;;;;;5053573;28;20431;-76
2022/02/03 01:53:47;;;;;;;53.60;36.50;;;9.50;99.90;;;;;;5039344;28;20044;-75
2022/02/03 01:56:15;;;;;;;54.40;36.97;;;9.50;99.90;;;;;;5019108;28;20033;-75
2022/02/03 01:58:47;;;;;;;56.20;37.23;;;9.40;99.90;;;;;;5053232;28;20037;-75
2022/02/03 02:01:19;;;;;;;58.83;36.70;;;9.50;99.90;;;;;;5034915;28;20021;-75
2022/02/03 02:04:13;;;;;;;55.20;35.13;;;9.50;99.90;;;;;;5035216;28;20025;-75
2022/02/03 02:07:09;;;;;;;56.42;35.30;;;9.50;99.90;;;;;;5053244;28;20033;-76
2022/02/03 02:13:14;;;;;;;48.90;33.35;;;9.50;99.90;;;;;;5053614;28;20504;-76
2022/02/03 02:16:02;;;;;;;54.23;33.80;;;9.50;99.90;;;;;;5053405;28;20018;-75
2022/02/03 02:38:07;;;;;;;57.17;35.73;;;9.50;99.90;;;;;;5056499;28;20111;-76
2022/02/03 02:43:17;;;;;;;62.47;36.00;;;9.50;99.90;;;;;;5057334;28;19908;-75
2022/02/03 02:46:15;;;;;;;58.33;35.97;;;9.50;99.90;;;;;;5039288;28;20017;-75
2022/02/03 02:49:09;;;;;;;59.40;37.20;;;9.50;99.90;;;;;;5057105;28;20036;-76
2022/02/03 02:52:09;;;;;;;60.73;35.67;;;9.50;99.90;;;;;;5056725;28;20025;-75
2022/02/03 02:54:54;;;;;;;65.47;36.57;;;9.50;99.90;;;;;;5035977;28;20164;-75
2022/02/03 03:33:46;;;;;;;45.53;27.40;;;9.40;99.90;;;;;;5047616;28;19904;-75
2022/02/03 03:36:16;;;;;;;52.37;30.43;;;9.40;99.90;;;;;;5040407;28;20370;-76
2022/02/03 03:38:45;;;;;;;48.13;27.67;;;9.40;99.90;;;;;;5038229;28;20380;-76
2022/02/03 03:41:16;;;;;;;38.23;25.53;;;9.50;99.90;;;;;;5038779;28;20071;-76
2022/02/03 03:44:03;;;;;;;40.67;25.50;;;9.40;99.90;;;;;;5055851;28;20013;-76
2022/02/03 03:46:34;;;;;;;44.17;26.20;;;9.40;99.90;;;;;;5055739;28;20086;-75
2022/02/03 03:49:21;;;;;;;41.00;25.13;;;9.40;99.90;;;;;;5038684;28;20021;-76
2022/02/03 03:52:00;;;;;;;41.20;24.63;;;9.40;99.90;;;;;;5056217;28;20021;-75
2022/02/03 03:54:41;;;;;;;41.83;25.43;;;9.40;99.90;;;;;;5038353;28;20021;-75
2022/02/03 04:43:23;;;;;;;37.67;23.20;;;9.20;99.90;;;;;;5054666;28;20406;-75
2022/02/03 05:05:30;;;;;;;31.00;19.83;;;9.20;99.90;;;;;;5054707;28;20035;-76
2022/02/03 05:14:33;;;;;;;23.80;14.13;;;9.20;99.90;;;;;;5031283;28;20120;-76
2022/02/03 05:20:51;;;;;;;21.47;12.67;;;9.20;99.70;;;;;;5054515;28;20028;-76
2022/02/03 05:26:55;;;;;;;20.90;12.43;;;9.20;99.50;;;;;;5054374;28;20022;-77
2022/02/03 05:45:03;;;;;;;30.27;18.33;;;9.10;99.70;;;;;;5054114;28;20028;-76
2022/02/03 06:11:59;;;;;;;26.00;15.70;;;9.00;99.00;;;;;;5033229;28;20034;-75
2022/02/03 06:14:26;;;;;;;24.70;14.63;;;9.00;98.80;;;;;;5032824;28;20037;-75
2022/02/03 06:22:23;;;;;;;21.03;13.97;;;9.00;98.70;;;;;;5038134;28;20389;-76
2022/02/03 06:27:29;;;;;;;23.90;12.23;;;9.00;98.60;;;;;;5045453;28;20053;-76
2022/02/03 06:29:56;;;;;;;18.00;11.47;;;9.00;98.60;;;;;;5035795;28;20041;-76
2022/02/03 06:32:23;;;;;;;18.00;10.33;;;8.90;98.50;;;;;;5033334;28;20041;-76
2022/02/03 06:34:49;;;;;;;17.67;9.93;;;8.90;98.50;;;;;;5052300;28;20041;-76
2022/02/03 06:37:15;;;;;;;15.20;9.33;;;8.90;98.50;;;;;;5035154;28;20171;-77
2022/02/03 06:39:41;;;;;;;18.43;8.40;;;8.90;98.50;;;;;;5046831;28;20112;-76
2022/02/03 06:42:08;;;;;;;12.70;7.40;;;8.90;98.40;;;;;;5034952;28;20022;-76
2022/02/03 06:44:49;;;;;;;12.77;6.17;;;8.90;98.30;;;;;;5035260;28;20388;-77
2022/02/03 06:47:47;;;;;;;13.40;6.30;;;9.00;98.40;;;;;;5034974;28;20021;-76
2022/02/03 06:50:24;;;;;;;11.37;5.17;;;8.80;98.30;;;;;;5051726;28;20552;-76
2022/02/03 06:57:51;;;;;;;10.80;4.57;;;8.80;98.30;;;;;;5018294;28;20041;-76
2022/02/03 07:00:25;;;;;;;9.10;3.97;;;8.80;98.30;;;;;;5052512;28;20028;-76
2022/02/03 07:02:54;;;;;;;9.90;5.32;;;8.80;98.30;;;;;;5044262;28;20079;-75
2022/02/03 07:05:22;;;;;;;8.23;3.67;;;8.80;98.30;;;;;;5054160;28;20107;-75
2022/02/03 07:07:47;;;;;;;11.93;4.40;;;8.80;98.30;;;;;;5038298;28;20052;-75
2022/02/03 07:10:13;;;;;;;11.87;4.70;;;8.80;98.30;;;;;;5035734;28;20075;-74
2022/02/03 07:12:39;;;;;;;10.53;4.33;;;8.80;98.20;;;;;;5055750;28;20044;-75
2022/02/03 07:15:07;;;;;;;8.63;3.80;;;8.80;98.30;;;;;;5036803;28;20041;-75
2022/02/03 07:20:55;;;;;;;10.13;4.57;;;8.80;98.20;;;;;;5055467;28;20508;-75
2022/02/03 07:23:21;;;;;;;11.13;4.33;;;8.70;98.10;;;;;;5055935;28;20029;-75
2022/02/03 07:25:46;;;;;;;11.03;3.77;;;8.70;98.00;;;;;;5037500;28;20065;-76
2022/02/03 07:28:12;;;;;;;14.10;4.10;;;8.70;98.00;;;;;;5036939;28;20469;-76
2022/02/03 07:30:39;;;;;;;11.17;4.73;;;8.70;97.90;;;;;;5038230;28;20056;-78
2022/02/03 07:33:06;;;;;;;14.30;5.13;;;8.70;97.90;;;;;;5037370;28;20491;-75
2022/02/03 07:35:34;;;;;;;11.67;4.40;;;8.70;97.90;;;;;;5055936;28;20044;-75
2022/02/03 07:38:03;;;;;;;9.57;4.13;;;8.70;97.80;;;;;;5038610;28;20420;-76
2022/02/03 07:40:29;;;;;;;11.30;4.03;;;8.80;97.80;;;;;;5056464;28;20468;-75
2022/02/03 07:42:56;;;;;;;10.67;4.73;;;8.80;97.90;;;;;;5038362;28;20025;-76
2022/02/03 07:45:22;;;;;;;12.73;4.67;;;8.80;97.80;;;;;;5021478;28;20032;-77
2022/02/03 07:47:50;;;;;;;14.80;5.93;;;8.80;97.80;;;;;;5021433;28;20152;-75
2022/02/03 07:50:17;;;;;;;11.97;6.33;;;8.80;97.70;;;;;;5037937;28;20021;-76
2022/02/03 07:52:44;;;;;;;14.13;5.80;;;8.80;97.70;;;;;;5055337;28;20465;-75
2022/02/03 07:55:11;;;;;;;18.67;6.97;;;8.80;97.70;;;;;;5017693;28;20048;-76
2022/02/03 07:57:41;;;;;;;11.47;5.90;;;8.80;97.60;;;;;;5034269;28;20031;-74
2022/02/03 08:00:07;;;;;;;17.73;7.00;;;8.80;97.90;;;;;;5034386;28;20536;-75
2022/02/03 08:02:35;;;;;;;16.87;7.77;;;8.80;97.60;;;;;;5034356;28;20025;-75
2022/02/03 08:05:03;;;;;;;19.37;7.53;;;8.80;97.60;;;;;;5037409;28;20366;-74
2022/02/03 08:07:29;;;;;;;12.77;6.80;;;8.70;97.50;;;;;;5037121;28;20037;-74
2022/02/03 08:10:02;;;;;;;19.07;8.03;;;8.80;97.50;;;;;;5055433;28;20315;-76
2022/02/03 08:12:32;;;;;;;16.67;8.00;;;8.80;97.40;;;;;;5054574;28;20388;-77
2022/02/03 08:14:59;;;;;;;21.37;7.93;;;8.80;97.20;;;;;;5037847;28;20033;-77
2022/02/03 08:17:36;;;;;;;17.33;8.47;;;8.80;97.20;;;;;;5036128;28;20040;-76
2022/02/03 08:20:07;;;;;;;17.00;8.63;;;8.80;97.10;;;;;;5054392;28;20060;-77
2022/02/03 08:22:46;;;;;;;17.03;8.60;;;8.80;97.10;;;;;;5020296;28;20444;-76
2022/02/03 08:25:24;;;;;;;16.43;8.60;;;8.80;97.00;;;;;;5036605;28;20116;-76
2022/02/03 08:30:38;;;;;;;16.73;7.40;;;8.80;96.90;;;;;;5054923;28;20041;-76
2022/02/03 08:33:05;;;;;;;16.00;8.57;;;8.70;96.90;;;;;;5054714;28;20405;-76
2022/02/03 08:43:19;;;;;;;14.70;7.60;;;8.80;96.70;;;;;;5055335;28;20039;-76
2022/02/03 08:45:45;;;;;;;16.23;8.90;;;8.80;96.70;;;;;;5054803;28;20047;-76
2022/02/03 08:48:13;;;;;;;16.17;8.50;;;8.90;96.70;;;;;;5036262;28;20039;-75
2022/02/03 08:50:39;;;;;;;18.20;8.50;;;8.80;96.60;;;;;;5054299;28;20393;-76
2022/02/03 08:53:21;;;;;;;18.90;9.67;;;8.80;96.50;;;;;;5054282;28;20033;-76
2022/02/03 09:55:15;;;;;;;15.57;8.17;;;8.70;95.90;;;;;;5052888;28;20040;-76
2022/02/03 10:00:28;;;;;;;18.17;7.53;;;8.70;96.10;;;;;;5035813;28;20371;-76
2022/02/03 10:02:59;;;;;;;18.33;8.53;;;8.80;96.20;;;;;;5016038;28;20071;-77
2022/02/03 10:05:33;;;;;;;16.87;8.07;;;8.80;96.10;;;;;;5052211;28;20534;-79
2022/02/03 10:07:59;;;;;;;13.63;8.03;;;8.80;96.10;;;;;;5053156;28;20040;-77
2022/02/03 10:10:28;;;;;;;17.00;8.77;;;8.70;96.50;;;;;;5035480;28;20489;-77
2022/02/03 10:12:54;;;;;;;17.50;8.93;;;8.60;96.70;;;;;;5053142;28;20029;-76
2022/02/03 10:15:21;;;;;;;21.20;8.50;;;8.60;96.90;;;;;;5052601;28;20041;-76
2022/02/03 10:17:49;;;;;;;15.37;8.60;;;8.60;97.00;;;;;;5034914;28;20033;-76
2022/02/03 10:20:18;;;;;;;17.13;8.23;;;8.50;97.10;;;;;;5052937;28;20067;-77
2022/02/03 10:22:49;;;;;;;15.40;9.10;;;8.50;97.30;;;;;;5035225;28;20017;-76
2022/02/03 10:25:36;;;;;;;15.83;8.53;;;8.50;97.30;;;;;;5053072;28;20040;-76
2022/02/03 10:28:09;;;;;;;19.00;8.33;;;8.50;97.40;;;;;;5052804;28;20480;-75
2022/02/03 10:30:45;;;;;;;19.43;8.87;;;8.50;97.50;;;;;;5034745;28;20017;-75
2022/02/03 10:33:11;;;;;;;19.80;8.57;;;8.50;97.50;;;;;;5036358;28;20035;-74
2022/02/03 10:44:27;;;;;;;19.13;7.60;;;8.60;97.00;;;;;;5057232;28;20029;-75
2022/02/03 11:02:33;;;;;;;15.38;7.38;;;8.70;96.50;;;;;;5040176;28;20493;-74
2022/02/03 11:07:45;;;;;;;17.77;7.10;;;8.80;96.60;;;;;;5056184;28;20028;-78
2022/02/03 11:12:56;;;;;;;17.60;7.47;;;9.00;96.60;;;;;;5056625;28;20104;-74
2022/02/03 11:15:24;;;;;;;13.70;7.10;;;9.00;96.10;;;;;;5055824;28;20425;-74
2022/02/03 11:17:52;;;;;;;12.90;6.57;;;9.00;96.10;;;;;;5056113;28;20393;-75
2022/02/03 11:20:21;;;;;;;14.10;6.60;;;9.00;95.90;;;;;;5055959;28;20021;-74
2022/02/03 11:25:39;;;;;;;20.00;6.67;;;9.10;95.80;;;;;;5056268;28;20027;-75
2022/02/03 11:58:03;;;;;;;13.23;7.47;;;9.40;93.80;;;;;;5038157;28;20048;-75
2022/02/03 12:20:53;;;;;;;13.70;6.97;;;9.50;93.70;;;;;;5054874;28;20377;-77
2022/02/03 12:26:33;;;;;;;18.07;7.63;;;9.60;93.10;;;;;;5054708;28;20099;-77
2022/02/03 12:29:08;;;;;;;15.18;7.50;;;9.50;92.80;;;;;;5055317;28;20027;-78
2022/02/03 12:36:59;;;;;;;20.13;8.50;;;9.50;92.40;;;;;;5054926;28;20110;-76
2022/02/03 12:39:40;;;;;;;14.77;6.90;;;9.50;92.30;;;;;;5036528;28;20032;-76
2022/02/03 12:42:20;;;;;;;18.13;7.77;;;9.40;92.50;;;;;;5054895;28;20013;-76
2022/02/03 12:44:47;;;;;;;19.40;8.00;;;9.40;92.60;;;;;;5055281;28;20059;-76
2022/02/03 12:47:14;;;;;;;19.97;7.27;;;9.40;92.50;;;;;;5036761;28;20032;-76
2022/02/03 12:49:40;;;;;;;13.03;6.60;;;9.50;92.60;;;;;;5020647;28;20529;-76
2022/02/03 12:52:28;;;;;;;19.27;7.60;;;9.40;92.60;;;;;;5054358;28;20508;-76
2022/02/03 12:54:55;;;;;;;14.67;6.73;;;9.40;92.70;;;;;;5036545;28;20531;-76
2022/02/03 12:57:33;;;;;;;17.50;7.00;;;9.40;92.80;;;;;;5054426;28;20021;-76
2022/02/03 13:00:16;;;;;;;14.00;7.83;;;9.30;92.90;;;;;;5053976;28;20034;-75
2022/02/03 13:02:56;;;;;;;14.40;6.93;;;9.30;93.20;;;;;;5036622;28;20412;-76
2022/02/03 13:05:25;;;;;;;13.43;6.73;;;9.20;93.40;;;;;;5036283;28;20021;-77
2022/02/03 13:07:53;;;;;;;19.23;8.10;;;9.20;93.60;;;;;;5037051;28;20071;-76
2022/02/03 13:10:21;;;;;;;16.60;6.43;;;9.20;93.80;;;;;;5054626;28;20064;-75
2022/02/03 13:12:56;;;;;;;16.30;6.53;;;9.20;93.80;;;;;;5054196;28;20055;-76
2022/02/03 13:15:39;;;;;;;15.60;7.10;;;9.40;93.90;;;;;;5054132;28;20035;-76
2022/02/03 13:18:11;;;;;;;15.63;5.77;;;9.40;93.90;;;;;;5053677;28;20033;-76
2022/02/03 13:20:40;;;;;;;18.03;7.43;;;9.30;93.90;;;;;;5037141;28;20112;-76
2022/02/03 13:23:11;;;;;;;14.03;6.67;;;9.30;93.90;;;;;;5053433;28;20393;-76
2022/02/03 13:25:53;;;;;;;13.23;7.00;;;9.20;93.80;;;;;;5019986;28;20370;-76
2022/02/03 13:31:06;;;;;;;16.30;6.90;;;9.20;94.00;;;;;;5053865;28;20378;-77
2022/02/03 13:33:43;;;;;;;15.27;6.80;;;9.20;94.10;;;;;;5037433;28;20424;-77
2022/02/03 13:36:17;;;;;;;16.80;7.17;;;9.20;94.20;;;;;;5037517;28;20036;-77
2022/02/03 13:38:59;;;;;;;15.33;6.50;;;9.20;94.20;;;;;;5053414;28;20059;-77
2022/02/03 13:41:29;;;;;;;16.27;7.37;;;9.20;94.30;;;;;;5053558;28;20035;-75
2022/02/03 13:43:55;;;;;;;12.90;6.33;;;9.10;94.30;;;;;;5035007;28;20112;-76
2022/02/03 13:46:47;;;;;;;13.20;5.83;;;9.10;94.30;;;;;;5053433;28;20029;-77
2022/02/03 13:49:18;;;;;;;14.00;7.10;;;9.20;94.30;;;;;;5032476;28;20036;-75
2022/02/03 13:51:46;;;;;;;15.80;7.30;;;9.00;94.40;;;;;;5053619;28;20036;-75
2022/02/03 14:14:53;;;;;;;14.20;7.73;;;8.80;95.50;;;;;;5042435;28;20037;-74
2022/02/03 14:22:41;;;;;;;13.18;7.18;;;8.80;96.00;;;;;;5053515;28;20318;-77
2022/02/03 14:27:51;;;;;;;15.60;8.23;;;8.70;96.40;;;;;;5053568;28;20040;-75
2022/02/03 14:30:19;;;;;;;14.80;7.43;;;8.70;96.60;;;;;;5018893;28;20052;-75
2022/02/03 14:32:45;;;;;;;13.10;8.47;;;8.70;96.70;;;;;;5035831;28;20036;-76
2022/02/03 14:35:12;;;;;;;20.10;9.23;;;8.60;96.90;;;;;;5035491;28;20484;-76
2022/02/03 14:37:47;;;;;;;13.33;8.10;;;8.60;97.00;;;;;;5018787;28;20496;-76
2022/02/03 14:42:54;;;;;;;14.13;8.50;;;8.70;97.10;;;;;;5036463;28;20037;-75
2022/02/03 14:45:19;;;;;;;17.27;9.20;;;8.60;97.30;;;;;;5034587;28;20040;-76
2022/02/03 14:47:45;;;;;;;14.07;9.53;;;8.50;97.30;;;;;;5052721;28;20037;-76
2022/02/03 14:50:13;;;;;;;17.10;10.47;;;8.50;97.70;;;;;;5052959;28;20063;-77
2022/02/03 14:53:00;;;;;;;18.53;10.73;;;8.50;97.70;;;;;;5052857;28;20021;-76
2022/02/03 14:58:24;;;;;;;17.37;11.33;;;8.30;98.40;;;;;;5038202;28;20251;-79
2022/02/03 15:00:50;;;;;;;21.77;10.67;;;8.40;98.80;;;;;;5052825;28;20025;-76
2022/02/03 15:03:17;;;;;;;21.53;11.10;;;8.30;98.90;;;;;;5052511;28;20025;-76
2022/02/03 15:05:43;;;;;;;17.60;10.70;;;8.30;99.00;;;;;;5035445;28;20021;-77
2022/02/03 15:08:34;;;;;;;22.27;10.53;;;8.30;99.00;;;;;;5035483;28;20040;-75
2022/02/03 15:11:13;;;;;;;19.67;10.10;;;8.30;99.30;;;;;;5052434;28;20061;-76
2022/02/03 15:13:41;;;;;;;19.60;11.17;;;8.30;99.40;;;;;;5036709;28;20029;-76
2022/02/03 15:16:09;;;;;;;19.93;9.97;;;8.20;99.40;;;;;;5052537;28;20032;-77
2022/02/03 15:18:35;;;;;;;20.53;10.37;;;8.20;99.40;;;;;;5053037;28;20053;-76
2022/02/03 15:21:01;;;;;;;22.10;10.47;;;8.20;99.50;;;;;;5035438;28;20096;-76
2022/02/03 15:23:27;;;;;;;16.73;10.23;;;8.20;99.60;;;;;;5017582;28;20406;-76
2022/02/03 15:25:53;;;;;;;18.90;9.93;;;8.20;99.70;;;;;;5053429;28;20067;-76
2022/02/03 15:28:20;;;;;;;16.37;9.37;;;8.20;99.60;;;;;;5056162;28;20151;-77
2022/02/03 15:30:46;;;;;;;18.13;10.47;;;8.30;99.70;;;;;;5038033;28;20029;-76
2022/02/03 15:33:12;;;;;;;18.47;10.23;;;8.20;99.60;;;;;;5055294;28;20029;-78
2022/02/03 15:35:50;;;;;;;19.53;10.83;;;8.20;99.70;;;;;;5038095;28;20389;-75
2022/02/03 15:38:19;;;;;;;20.40;10.80;;;8.20;99.70;;;;;;5037159;28;20045;-77
2022/02/03 15:40:47;;;;;;;21.20;10.23;;;8.20;99.80;;;;;;5055842;28;20104;-77
2022/02/03 15:45:50;;;;;;;21.20;10.60;;;8.20;99.90;;;;;;5055993;28;20029;-76
2022/02/03 15:48:32;;;;;;;18.10;10.47;;;8.20;99.90;;;;;;5038127;28;20033;-77
2022/02/03 15:56:08;;;;;;;20.77;11.07;;;8.20;99.90;;;;;;5055647;28;20036;-76
2022/02/03 15:57:04;;;;;;;14.93;7.57;;;8.10;99.90;;;;;;5056034;28;20040;-76
2022/02/03 16:16:45;;;;;;;18.42;10.90;;;8.10;99.90;;;;;;5035359;28;20016;-77
2022/02/03 16:18:29;;;;;;;22.07;11.63;;;8.10;99.90;;;;;;5020986;28;20034;-76
2022/02/03 16:21:03;;;;;;;19.90;11.77;;;8.10;99.90;;;;;;5050552;28;20029;-76
2022/02/03 16:23:59;;;;;;;21.80;11.88;;;8.10;99.90;;;;;;5053351;28;20037;-76
2022/02/03 16:40:52;;;;;;;21.63;13.30;;;8.10;99.90;;;;;;5039830;28;20066;-77
2022/02/03 16:51:09;;;;;;;24.90;14.53;;;8.10;99.90;;;;;;5039814;28;20094;-78
2022/02/03 16:53:35;;;;;;;25.20;15.17;;;8.10;99.90;;;;;;5037718;28;20553;-76
2022/02/03 16:56:02;;;;;;;22.80;14.17;;;8.10;99.90;;;;;;5055233;28;20108;-77
2022/02/03 16:58:32;;;;;;;22.07;13.93;;;8.10;99.90;;;;;;5036488;28;20037;-77
2022/02/03 17:01:01;;;;;;;25.13;14.87;;;8.10;99.90;;;;;;5020490;28;20063;-78
2022/02/03 17:03:27;;;;;;;24.47;15.67;;;8.10;99.90;;;;;;5017018;28;20021;-78
2022/02/03 17:05:53;;;;;;;23.30;15.80;;;8.00;99.90;;;;;;5034414;28;20100;-77
2022/02/03 17:08:20;;;;;;;25.77;16.63;;;8.10;99.90;;;;;;5017859;28;20063;-77
2022/02/03 17:10:46;;;;;;;25.73;16.10;;;8.10;99.90;;;;;;5036701;28;20129;-77
2022/02/03 17:13:12;;;;;;;26.17;16.50;;;8.10;99.90;;;;;;5019799;28;20428;-77
2022/02/03 17:15:38;;;;;;;28.17;17.93;;;8.10;99.90;;;;;;5036790;28;20033;-76
2022/02/03 17:18:04;;;;;;;28.50;18.27;;;8.10;99.90;;;;;;5054257;28;20112;-75
2022/02/03 17:20:31;;;;;;;25.73;16.50;;;8.10;99.90;;;;;;5053964;28;20060;-76
2022/02/03 17:22:58;;;;;;;28.87;18.20;;;8.10;99.90;;;;;;5019178;28;20053;-76
2022/02/03 17:25:33;;;;;;;35.40;19.03;;;8.10;99.90;;;;;;5036309;28;20017;-78
2022/02/03 17:28:07;;;;;;;30.17;18.63;;;8.10;99.90;;;;;;5021456;28;20028;-76
2022/02/03 17:30:39;;;;;;;27.38;18.77;;;8.20;99.90;;;;;;5020907;28;20025;-76
2022/02/03 17:52:51;;;;;;;30.58;22.00;;;8.00;99.90;;;;;;5053157;28;20048;-76
2022/02/03 18:04:03;;;;;;;;;;;8.10;99.90;;;;;;5038986;28;20598;-76
2022/02/03 18:33:11;;;;;;;39.33;25.03;;;8.10;99.90;;;;;;5053375;28;20116;-75
2022/02/03 18:52:04;;;;;;;;;;;8.00;99.90;;;;;;5046184;28;20060;-75
2022/02/03 18:57:30;;;;;;;38.90;25.30;;;8.10;99.90;;;;;;5043989;28;20120;-75
2022/02/03 20:08:52;;;;;;;39.77;24.17;;;8.10;99.90;;;;;;5056534;28;20007;-77
2022/02/03 20:11:20;;;;;;;42.27;27.93;;;8.10;99.90;;;;;;5055203;28;20462;-77
2022/02/03 20:13:47;;;;;;;44.10;26.83;;;8.10;99.90;;;;;;5055284;28;21082;-75
2022/02/03 20:16:19;;;;;;;39.93;26.50;;;8.10;99.90;;;;;;5021087;28;20036;-75
2022/02/03 20:18:45;;;;;;;44.27;27.63;;;8.10;99.90;;;;;;5035542;28;20028;-75
2022/02/03 20:21:11;;;;;;;45.93;26.53;;;8.10;99.90;;;;;;5037608;28;20037;-75
2022/02/03 20:23:42;;;;;;;40.53;26.07;;;8.10;99.90;;;;;;5055132;28;20032;-75
2022/02/03 20:26:09;;;;;;;40.43;25.43;;;8.00;99.90;;;;;;5055152;28;20029;-75
2022/02/03 20:28:35;;;;;;;41.73;26.37;;;8.10;99.90;;;;;;5036976;28;20028;-75
2022/02/03 20:31:00;;;;;;;49.13;27.10;;;8.10;99.90;;;;;;5055083;28;20089;-75
2022/02/03 20:33:26;;;;;;;47.13;28.53;;;8.00;99.90;;;;;;5030157;28;20025;-76
2022/02/03 20:35:52;;;;;;;47.10;27.90;;;8.10;99.90;;;;;;5054985;28;20068;-75
2022/02/03 20:38:18;;;;;;;44.20;27.87;;;8.10;99.90;;;;;;5054622;28;20045;-76
2022/02/03 20:40:46;;;;;;;45.00;28.57;;;8.00;99.90;;;;;;5054934;28;20147;-75
2022/02/03 20:43:12;;;;;;;45.83;28.37;;;8.00;99.90;;;;;;5054681;28;20103;-75
2022/02/03 20:45:43;;;;;;;45.00;28.03;;;8.10;99.90;;;;;;5037066;28;20025;-75
2022/02/03 20:48:09;;;;;;;45.27;27.13;;;8.00;99.90;;;;;;5054363;28;20048;-76
2022/02/03 20:50:40;;;;;;;45.07;28.33;;;8.10;99.90;;;;;;5020290;28;20029;-76
2022/02/03 20:53:06;;;;;;;51.93;31.30;;;8.10;99.90;;;;;;5054740;28;20381;-76
2022/02/03 20:55:32;;;;;;;50.03;31.03;;;8.10;99.90;;;;;;5054436;28;20033;-75
2022/02/03 20:57:58;;;;;;;46.57;30.53;;;8.00;99.90;;;;;;5036527;28;20095;-75
2022/02/03 21:00:29;;;;;;;47.10;31.50;;;8.00;99.90;;;;;;5054346;28;20075;-76
2022/02/03 21:03:07;;;;;;;46.10;30.30;;;8.00;99.90;;;;;;5036025;28;20151;-76
2022/02/03 21:05:32;;;;;;;46.07;29.67;;;8.00;99.90;;;;;;5036367;28;20021;-76
2022/02/03 21:07:58;;;;;;;50.53;31.77;;;8.00;99.90;;;;;;5054686;28;20033;-75
2022/02/03 21:10:29;;;;;;;56.03;32.80;;;8.10;99.90;;;;;;5036447;28;20047;-76
2022/02/03 21:12:55;;;;;;;48.83;30.60;;;8.10;99.90;;;;;;5036402;28;20044;-76
2022/02/03 21:15:26;;;;;;;48.80;31.13;;;8.10;99.90;;;;;;5035717;28;20037;-76
2022/02/03 21:17:54;;;;;;;54.07;33.63;;;8.00;99.90;;;;;;5053967;28;20058;-76
2022/02/03 21:20:22;;;;;;;53.20;33.07;;;8.10;99.90;;;;;;5035725;28;20032;-76
2022/02/03 21:22:49;;;;;;;51.90;32.80;;;8.10;99.90;;;;;;5052943;28;20032;-76
2022/02/03 21:25:31;;;;;;;54.57;32.87;;;8.10;99.90;;;;;;5040256;28;20095;-76
2022/02/03 21:28:03;;;;;;;46.93;29.77;;;8.10;99.90;;;;;;5043080;28;20029;-76
2022/02/03 21:30:30;;;;;;;49.20;31.27;;;8.20;99.90;;;;;;5029624;28;20037;-76
2022/02/03 21:32:55;;;;;;;53.50;33.27;;;8.10;99.90;;;;;;5049954;28;20091;-76
2022/02/03 21:35:22;;;;;;;56.03;35.63;;;8.10;99.90;;;;;;5034893;28;20040;-76
2022/02/03 21:37:48;;;;;;;50.43;32.73;;;8.00;99.90;;;;;;5015588;28;20057;-76
2022/02/03 21:40:15;;;;;;;55.50;33.80;;;8.10;99.90;;;;;;5032669;28;20411;-76
2022/02/03 21:42:41;;;;;;;55.77;34.07;;;8.10;99.90;;;;;;5034131;28;20052;-75
2022/02/03 21:45:07;;;;;;;52.50;32.27;;;8.10;99.90;;;;;;5035546;28;20067;-76
2022/02/03 21:47:34;;;;;;;52.23;31.50;;;8.10;99.90;;;;;;5036066;28;20092;-76
2022/02/03 21:50:01;;;;;;;57.33;34.43;;;8.30;99.90;;;;;;5053718;28;20067;-76
2022/02/03 21:52:36;;;;;;;54.50;33.07;;;8.10;99.90;;;;;;5053450;28;20033;-75
2022/02/03 21:55:05;;;;;;;55.50;35.30;;;8.10;99.90;;;;;;5035858;28;20039;-75
2022/02/03 21:57:31;;;;;;;53.43;34.10;;;8.10;99.90;;;;;;5035435;28;20108;-76
2022/02/03 21:59:57;;;;;;;52.50;34.90;;;8.10;99.90;;;;;;5035456;28;20029;-76
2022/02/03 22:02:24;;;;;;;53.73;34.03;;;8.20;99.90;;;;;;5035601;28;20059;-76
2022/02/03 22:04:50;;;;;;;56.93;34.37;;;8.10;99.90;;;;;;5035864;28;20117;-76
2022/02/03 22:07:16;;;;;;;57.80;35.10;;;8.20;99.90;;;;;;5053621;28;20083;-76
2022/02/03 22:09:41;;;;;;;53.30;33.17;;;8.10;99.90;;;;;;5035293;28;20052;-76
2022/02/03 22:12:08;;;;;;;58.90;34.57;;;8.10;99.90;;;;;;5053353;28;20025;-76
2022/02/03 22:14:34;;;;;;;52.20;33.87;;;8.20;99.90;;;;;;5053402;28;20162;-76
2022/02/03 22:17:02;;;;;;;54.27;32.60;;;8.20;99.90;;;;;;5053167;28;20033;-75
2022/02/03 22:19:29;;;;;;;50.77;30.63;;;8.20;99.90;;;;;;5052800;28;20037;-76
2022/02/03 22:22:09;;;;;;;47.73;31.03;;;8.20;99.90;;;;;;5035731;28;20465;-75
2022/02/03 22:24:46;;;;;;;51.37;33.30;;;8.20;99.90;;;;;;5053009;28;20025;-75
2022/02/03 22:45:47;;;;;;;50.20;31.95;;;8.10;99.90;;;;;;5056092;28;20492;-75
2022/02/03 22:48:25;;;;;;;55.80;34.27;;;8.20;99.90;;;;;;5055701;28;20033;-75
2022/02/03 22:50:52;;;;;;;50.27;32.33;;;8.10;99.90;;;;;;5040172;28;20048;-75
2022/02/03 22:53:18;;;;;;;52.37;33.10;;;8.20;99.90;;;;;;5037774;28;20028;-76
2022/02/03 22:55:43;;;;;;;55.87;32.57;;;8.20;99.90;;;;;;5037813;28;20037;-76
2022/02/03 23:00:58;;;;;;;56.67;32.60;;;8.20;99.90;;;;;;5055696;28;20059;-75
2022/02/03 23:03:26;;;;;;;50.67;31.13;;;8.20;99.90;;;;;;5055350;28;20049;-76
2022/02/03 23:05:51;;;;;;;55.70;34.33;;;8.20;99.90;;;;;;5055772;28;20522;-75
2022/02/03 23:08:22;;;;;;;49.60;31.90;;;8.30;99.90;;;;;;5055897;28;20025;-75
2022/02/03 23:12:01;;;;;;;50.40;31.70;;;8.10;99.90;;;;;;5038093;28;20064;-75
2022/02/03 23:16:24;;;;;;;50.20;31.90;;;8.20;99.90;;;;;;5055292;28;20469;-75
2022/02/03 23:18:52;;;;;;;52.53;32.93;;;8.30;99.90;;;;;;5037133;28;20455;-75
2022/02/03 23:23:49;;;;;;;54.00;34.70;;;8.20;99.90;;;;;;5038280;28;20075;-76
2022/02/03 23:26:17;;;;;;;53.33;33.87;;;8.10;99.90;;;;;;5038130;28;20028;-75
2022/02/03 23:28:43;;;;;;;53.23;32.10;;;8.20;99.90;;;;;;5020776;28;20151;-76
2022/02/03 23:31:08;;;;;;;58.00;34.57;;;8.20;99.90;;;;;;5037358;28;20483;-75
2022/02/03 23:33:34;;;;;;;55.67;33.43;;;8.20;99.90;;;;;;5021042;28;20385;-75
2022/02/03 23:36:00;;;;;;;53.30;33.23;;;8.20;99.90;;;;;;5054987;28;20112;-76
2022/02/03 23:38:50;;;;;;;56.97;34.63;;;8.10;99.90;;;;;;4998715;28;1108984;-76
2022/02/03 23:41:58;;;;;;;53.37;32.63;;;8.20;99.90;;;;;;5041960;28;20052;-75
